createdAt,value
2018-04-29T00:00:38.883Z,0.00
2018-04-29T00:01:38.851Z,0.00
2018-04-29T00:02:38.838Z,0.00
2018-04-29T00:03:38.811Z,0.00
2018-04-29T00:04:38.792Z,0.00
2018-04-29T00:05:38.774Z,0.00
2018-04-29T00:06:38.751Z,0.00
2018-04-29T00:07:38.734Z,0.00
2018-04-29T00:08:38.715Z,0.00
2018-04-29T00:09:38.694Z,0.00
2018-04-29T00:10:38.671Z,0.00
2018-04-29T00:11:38.656Z,0.00
2018-04-29T00:12:38.628Z,0.00
2018-04-29T00:13:38.609Z,0.00
2018-04-29T00:14:38.590Z,0.00
2018-04-29T00:15:38.573Z,0.00
2018-04-29T00:16:38.552Z,0.00
2018-04-29T00:17:38.529Z,0.00
2018-04-29T00:18:38.515Z,0.00
2018-04-29T00:19:38.491Z,0.00
2018-04-29T00:20:38.517Z,0.00
2018-04-29T00:21:38.450Z,0.00
2018-04-29T00:22:38.470Z,0.00
2018-04-29T00:23:38.409Z,0.00
2018-04-29T00:24:38.386Z,0.00
2018-04-29T00:25:38.374Z,0.00
2018-04-29T00:26:38.347Z,0.00
2018-04-29T00:27:38.338Z,0.00
2018-04-29T00:28:38.304Z,0.00
2018-04-29T00:29:38.289Z,0.00
2018-04-29T00:30:38.275Z,0.00
2018-04-29T00:31:38.250Z,0.00
2018-04-29T00:32:38.224Z,0.00
2018-04-29T00:33:38.204Z,0.00
2018-04-29T00:34:38.188Z,0.00
2018-04-29T00:35:38.174Z,0.00
2018-04-29T00:36:38.145Z,0.00
2018-04-29T00:37:38.128Z,0.00
2018-04-29T00:38:38.152Z,0.00
2018-04-29T00:39:38.081Z,0.00
2018-04-29T00:40:38.073Z,0.00
2018-04-29T00:41:38.047Z,0.00
2018-04-29T00:42:38.023Z,0.00
2018-04-29T00:43:37.999Z,0.00
2018-04-29T00:44:37.983Z,0.00
2018-04-29T00:45:37.968Z,0.00
2018-04-29T00:46:37.943Z,0.00
2018-04-29T00:47:37.921Z,0.00
2018-04-29T00:48:37.901Z,0.00
2018-04-29T00:49:37.886Z,0.00
2018-04-29T00:50:37.860Z,0.00
2018-04-29T00:51:37.843Z,0.00
2018-04-29T00:52:37.821Z,0.00
2018-04-29T00:53:37.798Z,0.00
2018-04-29T00:54:37.785Z,0.00
2018-04-29T00:55:37.767Z,0.00
2018-04-29T00:56:37.743Z,0.00
2018-04-29T00:57:37.734Z,0.00
2018-04-29T00:58:37.699Z,0.00
2018-04-29T00:59:37.685Z,0.00
2018-04-29T01:00:37.663Z,0.00
2018-04-29T01:01:37.635Z,0.00
2018-04-29T01:02:37.617Z,0.00
2018-04-29T01:03:37.604Z,0.00
2018-04-29T01:04:37.578Z,0.00
2018-04-29T01:05:37.594Z,0.00
2018-04-29T01:06:37.591Z,0.00
2018-04-29T01:07:37.520Z,0.00
2018-04-29T01:08:37.492Z,0.00
2018-04-29T01:09:37.476Z,0.00
2018-04-29T01:10:37.459Z,0.00
2018-04-29T01:11:37.444Z,0.00
2018-04-29T01:12:37.416Z,0.00
2018-04-29T01:13:37.396Z,0.00
2018-04-29T01:14:37.373Z,0.00
2018-04-29T01:15:37.353Z,0.00
2018-04-29T01:16:37.330Z,0.00
2018-04-29T01:17:37.312Z,0.00
2018-04-29T01:18:37.296Z,0.00
2018-04-29T01:19:37.272Z,0.00
2018-04-29T01:20:37.253Z,0.00
2018-04-29T01:21:37.233Z,0.00
2018-04-29T01:22:37.222Z,0.00
2018-04-29T01:23:37.189Z,0.00
2018-04-29T01:24:37.171Z,0.00
2018-04-29T01:25:37.159Z,0.00
2018-04-29T01:26:37.160Z,0.00
2018-04-29T01:27:37.164Z,0.00
2018-04-29T01:28:37.114Z,0.00
2018-04-29T01:29:37.103Z,0.00
2018-04-29T01:30:37.047Z,0.00
2018-04-29T01:31:37.030Z,0.00
2018-04-29T01:32:37.004Z,0.00
2018-04-29T01:33:36.998Z,0.00
2018-04-29T01:34:36.964Z,0.00
2018-04-29T01:35:36.941Z,0.00
2018-04-29T01:36:36.920Z,0.00
2018-04-29T01:37:36.899Z,0.00
2018-04-29T01:38:36.879Z,0.00
2018-04-29T01:39:36.862Z,0.00
2018-04-29T01:40:36.844Z,0.00
2018-04-29T01:41:36.820Z,0.00
2018-04-29T01:42:36.798Z,0.00
2018-04-29T01:43:36.779Z,0.00
2018-04-29T01:44:36.761Z,0.00
2018-04-29T01:45:36.737Z,0.00
2018-04-29T01:46:36.742Z,0.00
2018-04-29T01:47:36.709Z,0.00
2018-04-29T01:48:36.685Z,0.00
2018-04-29T01:49:36.694Z,0.00
2018-04-29T01:50:36.634Z,0.00
2018-04-29T01:51:36.662Z,0.00
2018-04-29T01:52:36.599Z,0.00
2018-04-29T01:53:36.575Z,0.00
2018-04-29T01:54:36.557Z,0.00
2018-04-29T01:55:36.539Z,0.00
2018-04-29T01:56:36.513Z,0.00
2018-04-29T01:57:36.495Z,0.00
2018-04-29T01:58:36.478Z,0.00
2018-04-29T01:59:36.466Z,0.00
2018-04-29T02:00:36.433Z,0.00
2018-04-29T02:01:36.414Z,0.00
2018-04-29T02:02:36.391Z,0.00
2018-04-29T02:03:36.370Z,0.00
2018-04-29T02:04:36.356Z,0.00
2018-04-29T02:05:36.345Z,0.00
2018-04-29T02:06:36.310Z,0.00
2018-04-29T02:07:36.288Z,0.00
2018-04-29T02:08:36.269Z,0.00
2018-04-29T02:09:36.252Z,0.00
2018-04-29T02:10:36.231Z,0.00
2018-04-29T02:11:36.208Z,0.00
2018-04-29T02:12:36.185Z,0.00
2018-04-29T02:13:36.170Z,0.00
2018-04-29T02:14:36.145Z,0.00
2018-04-29T02:15:36.124Z,0.00
2018-04-29T02:16:36.106Z,0.00
2018-04-29T02:17:36.084Z,0.00
2018-04-29T02:18:36.063Z,0.00
2018-04-29T02:19:36.043Z,0.00
2018-04-29T02:20:36.031Z,0.00
2018-04-29T02:21:36.015Z,0.00
2018-04-29T02:22:35.992Z,0.00
2018-04-29T02:23:35.963Z,0.00
2018-04-29T02:24:35.947Z,0.00
2018-04-29T02:25:35.927Z,0.00
2018-04-29T02:26:35.916Z,0.00
2018-04-29T02:27:35.879Z,0.00
2018-04-29T02:28:35.860Z,0.00
2018-04-29T02:29:35.837Z,0.00
2018-04-29T02:30:35.821Z,0.00
2018-04-29T02:31:35.795Z,0.00
2018-04-29T02:32:35.778Z,0.00
2018-04-29T02:33:35.757Z,0.00
2018-04-29T02:34:35.736Z,0.00
2018-04-29T02:35:35.719Z,0.00
2018-04-29T02:36:35.699Z,0.00
2018-04-29T02:39:12.246Z,0.00
2018-04-29T02:40:12.147Z,0.00
2018-04-29T02:42:08.582Z,0.00
2018-04-29T02:43:08.480Z,0.00
2018-04-29T02:45:04.466Z,0.00
2018-04-29T02:46:04.385Z,0.00
2018-04-29T02:48:01.358Z,0.00
2018-04-29T02:49:01.268Z,0.00
2018-04-29T02:50:57.384Z,0.00
2018-04-29T02:51:57.290Z,0.00
2018-04-29T02:53:50.769Z,0.00
2018-04-29T02:54:50.691Z,0.00
2018-04-29T02:56:46.710Z,0.00
2018-04-29T02:57:46.627Z,0.00
2018-04-29T02:59:40.090Z,0.00
2018-04-29T03:00:40.049Z,0.00
2018-04-29T03:02:35.993Z,0.00
2018-04-29T03:03:35.914Z,0.00
2018-04-29T03:05:31.926Z,0.00
2018-04-29T03:06:31.884Z,0.00
2018-04-29T03:08:27.956Z,0.00
2018-04-29T03:09:27.754Z,0.00
2018-04-29T03:10:27.735Z,0.00
2018-04-29T03:11:27.713Z,0.00
2018-04-29T03:12:27.691Z,0.00
2018-04-29T03:13:27.680Z,0.00
2018-04-29T03:14:27.666Z,0.00
2018-04-29T03:15:27.643Z,0.00
2018-04-29T03:16:27.612Z,0.00
2018-04-29T03:17:27.590Z,0.00
2018-04-29T03:18:27.565Z,0.00
2018-04-29T03:19:27.546Z,0.00
2018-04-29T03:20:27.526Z,0.00
2018-04-29T03:21:27.506Z,0.00
2018-04-29T03:22:27.509Z,0.00
2018-04-29T03:23:27.466Z,0.00
2018-04-29T03:24:27.445Z,0.00
2018-04-29T03:25:27.432Z,0.00
2018-04-29T03:26:27.405Z,0.00
2018-04-29T03:27:27.380Z,0.00
2018-04-29T03:28:27.362Z,0.00
2018-04-29T03:29:27.341Z,0.00
2018-04-29T03:30:27.329Z,0.00
2018-04-29T03:31:27.298Z,0.00
2018-04-29T03:32:27.282Z,0.00
2018-04-29T03:33:27.281Z,0.00
2018-04-29T03:34:27.278Z,0.00
2018-04-29T03:35:27.262Z,0.00
2018-04-29T03:36:27.211Z,0.00
2018-04-29T03:37:27.224Z,0.00
2018-04-29T03:38:27.154Z,0.00
2018-04-29T03:39:27.141Z,0.00
2018-04-29T03:40:27.112Z,0.00
2018-04-29T03:41:27.094Z,0.00
2018-04-29T03:42:27.066Z,0.00
2018-04-29T03:43:27.050Z,0.00
2018-04-29T03:44:27.027Z,0.00
2018-04-29T03:45:27.024Z,0.00
2018-04-29T03:46:26.986Z,0.00
2018-04-29T03:47:26.966Z,0.00
2018-04-29T03:48:26.977Z,0.00
2018-04-29T03:49:26.926Z,0.00
2018-04-29T03:50:26.901Z,0.00
2018-04-29T03:51:26.881Z,0.00
2018-04-29T03:52:26.860Z,0.00
2018-04-29T03:53:26.838Z,0.00
2018-04-29T03:54:26.823Z,0.00
2018-04-29T03:55:26.795Z,0.00
2018-04-29T03:56:26.774Z,0.00
2018-04-29T03:57:26.751Z,0.00
2018-04-29T03:58:26.730Z,0.00
2018-04-29T03:59:26.710Z,0.00
2018-04-29T04:00:26.690Z,0.00
2018-04-29T04:01:26.669Z,0.00
2018-04-29T04:02:26.650Z,0.00
2018-04-29T04:03:26.630Z,0.00
2018-04-29T04:04:26.605Z,0.00
2018-04-29T04:05:26.583Z,0.00
2018-04-29T04:06:26.562Z,0.00
2018-04-29T04:07:26.545Z,0.00
2018-04-29T04:08:26.557Z,0.00
2018-04-29T04:09:26.501Z,0.00
2018-04-29T04:10:26.479Z,0.00
2018-04-29T04:11:26.456Z,0.00
2018-04-29T04:12:26.441Z,0.00
2018-04-29T04:13:26.417Z,0.00
2018-04-29T04:14:26.400Z,0.00
2018-04-29T04:15:26.372Z,0.00
2018-04-29T04:16:26.356Z,0.00
2018-04-29T04:17:26.338Z,0.00
2018-04-29T04:18:26.315Z,0.00
2018-04-29T04:19:26.286Z,0.00
2018-04-29T04:20:26.267Z,0.00
2018-04-29T04:21:26.248Z,0.00
2018-04-29T04:22:26.225Z,0.00
2018-04-29T04:23:26.202Z,0.00
2018-04-29T04:24:26.187Z,0.00
2018-04-29T04:25:26.163Z,0.00
2018-04-29T04:26:26.137Z,0.00
2018-04-29T04:27:26.124Z,0.00
2018-04-29T04:28:26.098Z,0.00
2018-04-29T04:29:26.116Z,0.00
2018-04-29T04:30:26.091Z,0.00
2018-04-29T04:31:26.098Z,0.00
2018-04-29T04:32:26.009Z,0.00
2018-04-29T04:33:25.993Z,0.00
2018-04-29T04:34:25.965Z,0.00
2018-04-29T04:35:25.950Z,0.00
2018-04-29T04:36:25.925Z,0.00
2018-04-29T04:37:25.904Z,0.00
2018-04-29T04:40:00.595Z,0.00
2018-04-29T04:41:00.455Z,0.00
2018-04-29T04:42:56.494Z,0.00
2018-04-29T04:43:56.405Z,0.00
2018-04-29T04:45:53.416Z,0.00
2018-04-29T04:46:53.321Z,0.00
2018-04-29T04:48:49.326Z,0.00
2018-04-29T04:49:49.191Z,0.00
2018-04-29T04:51:42.651Z,0.00
2018-04-29T04:52:42.551Z,0.00
2018-04-29T04:54:38.571Z,0.00
2018-04-29T04:55:38.494Z,0.00
2018-04-29T04:57:34.436Z,0.00
2018-04-29T04:58:34.366Z,0.00
2018-04-29T05:00:30.327Z,0.00
2018-04-29T05:01:30.252Z,0.00
2018-04-29T05:03:26.351Z,0.00
2018-04-29T05:04:26.275Z,0.00
2018-04-29T05:06:23.280Z,5.63
2018-04-29T05:07:23.197Z,5.63
2018-04-29T05:09:16.656Z,5.63
2018-04-29T05:10:16.589Z,5.63
2018-04-29T05:12:12.546Z,5.63
2018-04-29T05:13:12.698Z,11.25
2018-04-29T05:15:05.897Z,11.25
2018-04-29T05:16:05.821Z,5.63
2018-04-29T05:18:01.845Z,5.63
2018-04-29T05:19:01.756Z,5.63
2018-04-29T05:20:58.594Z,5.63
2018-04-29T05:21:58.494Z,11.25
2018-04-29T05:23:55.458Z,11.25
2018-04-29T05:24:55.302Z,11.25
2018-04-29T05:26:51.407Z,11.25
2018-04-29T05:27:51.258Z,11.25
2018-04-29T05:29:44.712Z,11.25
2018-04-29T05:30:44.598Z,11.25
2018-04-29T05:32:40.588Z,16.88
2018-04-29T05:33:40.475Z,11.25
2018-04-29T05:35:36.486Z,11.25
2018-04-29T05:36:36.401Z,11.25
2018-04-29T05:38:32.410Z,11.25
2018-04-29T05:39:32.321Z,11.25
2018-04-29T05:41:28.385Z,16.88
2018-04-29T05:42:28.289Z,16.88
2018-04-29T05:44:22.034Z,16.88
2018-04-29T05:45:21.803Z,11.25
2018-04-29T05:47:16.347Z,11.25
2018-04-29T05:48:16.272Z,16.88
2018-04-29T05:50:12.272Z,16.88
2018-04-29T05:51:12.157Z,16.88
2018-04-29T05:53:09.139Z,16.88
2018-04-29T05:54:09.040Z,16.88
2018-04-29T05:56:02.676Z,16.88
2018-04-29T05:57:02.608Z,16.88
2018-04-29T05:58:59.583Z,16.88
2018-04-29T05:59:59.472Z,16.88
2018-04-29T06:01:55.494Z,16.88
2018-04-29T06:02:55.419Z,16.88
2018-04-29T06:04:52.528Z,16.88
2018-04-29T06:05:52.320Z,16.88
2018-04-29T06:07:48.409Z,16.88
2018-04-29T06:08:48.336Z,22.50
2018-04-29T06:10:44.369Z,22.50
2018-04-29T06:11:44.322Z,22.50
2018-04-29T06:13:40.338Z,22.50
2018-04-29T06:14:40.223Z,22.50
2018-04-29T06:16:36.231Z,22.50
2018-04-29T06:17:36.153Z,22.50
2018-04-29T06:19:33.142Z,22.50
2018-04-29T06:20:33.114Z,22.50
2018-04-29T06:22:30.029Z,16.88
2018-04-29T06:23:29.922Z,16.88
2018-04-29T06:25:24.403Z,16.88
2018-04-29T06:26:24.305Z,16.88
2018-04-29T06:28:20.365Z,16.88
2018-04-29T06:29:20.243Z,16.88
2018-04-29T06:30:20.226Z,16.88
2018-04-29T06:31:20.211Z,16.88
2018-04-29T06:32:20.192Z,16.88
2018-04-29T06:33:20.165Z,22.50
2018-04-29T06:34:20.142Z,22.50
2018-04-29T06:35:20.119Z,28.13
2018-04-29T06:36:20.102Z,33.75
2018-04-29T06:37:20.082Z,33.75
2018-04-29T06:38:20.061Z,33.75
2018-04-29T06:39:20.035Z,33.75
2018-04-29T06:40:20.020Z,28.13
2018-04-29T06:41:20.007Z,22.50
2018-04-29T06:42:19.974Z,22.50
2018-04-29T06:43:19.957Z,22.50
2018-04-29T06:44:19.940Z,22.50
2018-04-29T06:45:19.913Z,22.50
2018-04-29T06:46:19.897Z,22.50
2018-04-29T06:47:19.871Z,22.50
2018-04-29T06:48:19.850Z,22.50
2018-04-29T06:49:19.843Z,28.13
2018-04-29T06:50:19.811Z,28.13
2018-04-29T06:51:19.792Z,28.13
2018-04-29T06:52:19.772Z,28.13
2018-04-29T06:53:19.751Z,28.13
2018-04-29T06:54:19.729Z,28.13
2018-04-29T06:55:19.705Z,28.13
2018-04-29T06:56:19.692Z,28.13
2018-04-29T06:57:19.667Z,28.13
2018-04-29T06:58:19.644Z,28.13
2018-04-29T06:59:19.627Z,28.13
2018-04-29T07:00:19.648Z,28.13
2018-04-29T07:01:19.591Z,28.13
2018-04-29T07:02:19.584Z,28.13
2018-04-29T07:03:19.547Z,28.13
2018-04-29T07:04:19.582Z,28.13
2018-04-29T07:05:19.503Z,28.13
2018-04-29T07:06:19.522Z,28.13
2018-04-29T07:07:19.483Z,22.50
2018-04-29T07:08:19.497Z,22.50
2018-04-29T07:09:19.513Z,22.50
2018-04-29T07:10:19.430Z,22.50
2018-04-29T07:11:19.426Z,28.13
2018-04-29T07:12:19.412Z,28.13
2018-04-29T07:13:19.341Z,28.13
2018-04-29T07:14:19.319Z,28.13
2018-04-29T07:15:19.314Z,28.13
2018-04-29T07:16:19.283Z,28.13
2018-04-29T07:17:19.260Z,28.13
2018-04-29T07:18:19.236Z,28.13
2018-04-29T07:19:19.221Z,28.13
2018-04-29T07:20:19.198Z,28.13
2018-04-29T07:21:19.179Z,28.13
2018-04-29T07:22:19.156Z,28.13
2018-04-29T07:23:19.133Z,28.13
2018-04-29T07:24:19.120Z,28.13
2018-04-29T07:25:19.103Z,28.13
2018-04-29T07:26:19.081Z,28.13
2018-04-29T07:27:19.056Z,28.13
2018-04-29T07:28:19.037Z,28.13
2018-04-29T07:29:19.015Z,28.13
2018-04-29T07:30:19.003Z,28.13
2018-04-29T07:31:18.979Z,28.13
2018-04-29T07:32:18.955Z,28.13
2018-04-29T07:33:18.932Z,28.13
2018-04-29T07:34:18.913Z,28.13
2018-04-29T07:35:18.892Z,28.13
2018-04-29T07:36:18.873Z,28.13
2018-04-29T07:37:18.861Z,28.13
2018-04-29T07:38:18.833Z,28.13
2018-04-29T07:39:18.812Z,28.13
2018-04-29T07:40:18.795Z,28.13
2018-04-29T07:41:18.776Z,28.13
2018-04-29T07:42:18.749Z,28.13
2018-04-29T07:43:18.732Z,28.13
2018-04-29T07:44:18.715Z,33.75
2018-04-29T07:45:18.698Z,28.13
2018-04-29T07:46:18.673Z,16.88
2018-04-29T07:47:18.654Z,22.50
2018-04-29T07:48:18.634Z,16.88
2018-04-29T07:49:18.628Z,22.50
2018-04-29T07:50:18.589Z,22.50
2018-04-29T07:51:18.570Z,22.50
2018-04-29T07:52:18.564Z,22.50
2018-04-29T07:53:18.582Z,22.50
2018-04-29T07:54:18.509Z,22.50
2018-04-29T07:55:18.490Z,22.50
2018-04-29T07:56:18.476Z,22.50
2018-04-29T07:57:18.449Z,22.50
2018-04-29T07:58:21.237Z,22.50
2018-04-29T07:59:18.410Z,22.50
2018-04-29T08:00:18.387Z,22.50
2018-04-29T08:01:18.372Z,22.50
2018-04-29T08:02:18.347Z,22.50
2018-04-29T08:03:18.336Z,22.50
2018-04-29T08:04:18.307Z,22.50
2018-04-29T08:05:18.288Z,22.50
2018-04-29T08:06:18.273Z,22.50
2018-04-29T08:07:18.250Z,22.50
2018-04-29T08:08:18.229Z,28.13
2018-04-29T08:09:18.210Z,28.13
2018-04-29T08:10:18.191Z,28.13
2018-04-29T08:11:18.168Z,28.13
2018-04-29T08:12:18.171Z,22.50
2018-04-29T08:13:18.130Z,28.13
2018-04-29T08:14:18.105Z,28.13
2018-04-29T08:15:18.090Z,28.13
2018-04-29T08:16:18.081Z,28.13
2018-04-29T08:17:18.050Z,33.75
2018-04-29T08:18:18.031Z,33.75
2018-04-29T08:19:18.010Z,33.75
2018-04-29T08:20:17.991Z,33.75
2018-04-29T08:21:17.975Z,33.75
2018-04-29T08:22:17.955Z,33.75
2018-04-29T08:23:17.932Z,33.75
2018-04-29T08:24:17.939Z,33.75
2018-04-29T08:25:17.892Z,39.38
2018-04-29T08:26:17.879Z,39.38
2018-04-29T08:27:17.855Z,39.38
2018-04-29T08:28:17.831Z,45.00
2018-04-29T08:29:17.819Z,45.00
2018-04-29T08:30:17.793Z,45.00
2018-04-29T08:31:17.784Z,45.00
2018-04-29T08:32:17.753Z,50.63
2018-04-29T08:33:17.737Z,50.63
2018-04-29T08:34:17.717Z,50.63
2018-04-29T08:35:17.697Z,50.63
2018-04-29T08:36:17.703Z,50.63
2018-04-29T08:37:17.695Z,50.63
2018-04-29T08:38:17.705Z,50.63
2018-04-29T08:39:17.632Z,56.25
2018-04-29T08:40:17.598Z,56.25
2018-04-29T08:41:17.590Z,56.25
2018-04-29T08:42:17.571Z,56.25
2018-04-29T08:43:17.589Z,61.88
2018-04-29T08:44:17.579Z,61.88
2018-04-29T08:45:17.573Z,56.25
2018-04-29T08:46:17.542Z,56.25
2018-04-29T08:47:17.491Z,56.25
2018-04-29T08:48:17.447Z,56.25
2018-04-29T08:49:17.425Z,56.25
2018-04-29T08:50:17.423Z,56.25
2018-04-29T08:51:17.390Z,56.25
2018-04-29T08:52:17.368Z,56.25
2018-04-29T08:53:17.353Z,56.25
2018-04-29T08:54:17.332Z,56.25
2018-04-29T08:55:17.319Z,56.25
2018-04-29T08:56:17.299Z,61.88
2018-04-29T08:57:17.270Z,61.88
2018-04-29T08:58:17.254Z,61.88
2018-04-29T08:59:17.237Z,67.50
2018-04-29T09:00:17.222Z,73.13
2018-04-29T09:01:17.206Z,78.75
2018-04-29T09:02:17.182Z,84.38
2018-04-29T09:03:17.175Z,73.13
2018-04-29T09:04:17.148Z,67.50
2018-04-29T09:05:17.123Z,67.50
2018-04-29T09:06:17.105Z,73.13
2018-04-29T09:07:17.091Z,67.50
2018-04-29T09:08:17.074Z,67.50
2018-04-29T09:09:17.049Z,78.75
2018-04-29T09:10:17.125Z,73.13
2018-04-29T09:11:17.013Z,73.13
2018-04-29T09:12:16.992Z,61.88
2018-04-29T09:13:16.985Z,61.88
2018-04-29T09:14:16.962Z,61.88
2018-04-29T09:15:16.939Z,50.63
2018-04-29T09:16:16.928Z,45.00
2018-04-29T09:17:16.913Z,50.63
2018-04-29T09:18:16.887Z,61.88
2018-04-29T09:19:16.871Z,61.88
2018-04-29T09:20:16.851Z,61.88
2018-04-29T09:21:16.829Z,61.88
2018-04-29T09:22:16.813Z,61.88
2018-04-29T09:23:16.799Z,61.88
2018-04-29T09:24:16.780Z,61.88
2018-04-29T09:25:16.775Z,61.88
2018-04-29T09:26:16.740Z,61.88
2018-04-29T09:27:16.727Z,61.88
2018-04-29T09:28:16.709Z,67.50
2018-04-29T09:29:31.261Z,73.13
2018-04-29T09:30:16.676Z,73.13
2018-04-29T09:31:16.659Z,78.75
2018-04-29T09:32:16.644Z,78.75
2018-04-29T09:33:16.628Z,78.75
2018-04-29T09:34:16.598Z,78.75
2018-04-29T09:35:16.586Z,78.75
2018-04-29T09:36:16.572Z,84.38
2018-04-29T09:37:17.312Z,84.38
2018-04-29T09:38:16.537Z,84.38
2018-04-29T09:39:16.527Z,84.38
2018-04-29T09:40:16.501Z,84.38
2018-04-29T09:41:16.479Z,90.00
2018-04-29T09:42:16.460Z,90.00
2018-04-29T09:43:16.527Z,90.00
2018-04-29T09:44:16.430Z,90.00
2018-04-29T09:45:16.410Z,95.63
2018-04-29T09:46:16.396Z,95.63
2018-04-29T09:47:16.381Z,101.25
2018-04-29T09:48:16.374Z,101.25
2018-04-29T09:49:17.099Z,95.63
2018-04-29T09:50:16.329Z,78.75
2018-04-29T09:51:16.308Z,112.50
2018-04-29T09:52:16.293Z,118.13
2018-04-29T09:53:16.279Z,123.75
2018-04-29T09:54:16.261Z,129.38
2018-04-29T09:55:16.249Z,135.00
2018-04-29T09:56:16.327Z,101.25
2018-04-29T09:57:16.214Z,146.25
2018-04-29T09:58:16.200Z,151.88
2018-04-29T09:59:16.182Z,151.88
2018-04-29T10:00:16.171Z,157.50
2018-04-29T10:01:16.221Z,163.13
2018-04-29T10:02:16.133Z,163.13
2018-04-29T10:03:16.117Z,163.13
2018-04-29T10:04:16.099Z,168.75
2018-04-29T10:05:16.088Z,168.75
2018-04-29T10:06:16.075Z,174.38
2018-04-29T10:07:16.068Z,180.00
2018-04-29T10:08:16.035Z,180.00
2018-04-29T10:09:16.023Z,185.63
2018-04-29T10:10:16.364Z,191.25
2018-04-29T10:11:15.996Z,196.88
2018-04-29T10:12:15.983Z,196.88
2018-04-29T10:13:15.965Z,202.50
2018-04-29T10:14:15.958Z,202.50
2018-04-29T10:15:15.944Z,202.50
2018-04-29T10:16:15.915Z,208.13
2018-04-29T10:17:15.931Z,213.75
2018-04-29T10:18:15.942Z,213.75
2018-04-29T10:19:15.875Z,213.75
2018-04-29T10:20:15.857Z,213.75
2018-04-29T10:21:15.850Z,219.38
2018-04-29T10:22:15.827Z,219.38
2018-04-29T10:23:15.820Z,219.38
2018-04-29T10:24:15.807Z,225.00
2018-04-29T10:25:15.790Z,225.00
2018-04-29T10:26:15.782Z,225.00
2018-04-29T10:27:15.759Z,225.00
2018-04-29T10:28:15.741Z,213.75
2018-04-29T10:29:15.730Z,135.00
2018-04-29T10:30:15.718Z,213.75
2018-04-29T10:31:15.720Z,202.50
2018-04-29T10:32:15.684Z,202.50
2018-04-29T10:33:15.691Z,208.13
2018-04-29T10:34:15.685Z,230.63
2018-04-29T10:35:15.682Z,230.63
2018-04-29T10:36:15.688Z,230.63
2018-04-29T10:37:15.674Z,230.63
2018-04-29T10:38:15.638Z,230.63
2018-04-29T10:39:15.602Z,230.63
2018-04-29T10:40:15.631Z,230.63
2018-04-29T10:41:15.554Z,230.63
2018-04-29T10:42:15.554Z,230.63
2018-04-29T10:43:15.527Z,230.63
2018-04-29T10:44:15.514Z,230.63
2018-04-29T10:45:15.509Z,230.63
2018-04-29T10:46:15.481Z,230.63
2018-04-29T10:47:15.469Z,230.63
2018-04-29T10:48:15.463Z,230.63
2018-04-29T10:49:15.445Z,230.63
2018-04-29T10:50:15.435Z,230.63
2018-04-29T10:51:15.414Z,230.63
2018-04-29T10:52:15.395Z,236.25
2018-04-29T10:53:15.383Z,236.25
2018-04-29T10:54:15.367Z,236.25
2018-04-29T10:55:15.355Z,236.25
2018-04-29T10:56:15.346Z,236.25
2018-04-29T10:57:15.326Z,236.25
2018-04-29T10:58:15.312Z,241.88
2018-04-29T10:59:15.296Z,241.88
2018-04-29T11:00:15.287Z,247.50
2018-04-29T11:01:15.272Z,253.13
2018-04-29T11:02:15.255Z,258.75
2018-04-29T11:03:15.245Z,264.38
2018-04-29T11:04:15.234Z,281.25
2018-04-29T11:05:15.220Z,410.63
2018-04-29T11:06:15.210Z,967.50
2018-04-29T11:07:15.190Z,911.25
2018-04-29T11:08:15.180Z,444.38
2018-04-29T11:09:15.160Z,495.00
2018-04-29T11:10:15.148Z,613.13
2018-04-29T11:11:15.136Z,1462.50
2018-04-29T11:12:15.124Z,2745.00
2018-04-29T11:13:15.123Z,3200.63
2018-04-29T11:14:15.099Z,3825.00
2018-04-29T11:15:15.095Z,3290.63
2018-04-29T11:16:15.084Z,1366.88
2018-04-29T11:17:15.058Z,624.38
2018-04-29T11:18:15.100Z,528.75
2018-04-29T11:19:15.035Z,478.13
2018-04-29T11:20:15.085Z,455.63
2018-04-29T11:21:15.013Z,393.75
2018-04-29T11:22:15.013Z,360.00
2018-04-29T11:23:14.983Z,371.25
2018-04-29T11:24:14.969Z,427.50
2018-04-29T11:25:14.957Z,416.25
2018-04-29T11:26:14.957Z,461.25
2018-04-29T11:27:14.979Z,562.50
2018-04-29T11:28:14.921Z,658.13
2018-04-29T11:29:14.906Z,849.38
2018-04-29T11:30:29.803Z,973.13
2018-04-29T11:31:14.893Z,967.50
2018-04-29T11:32:14.914Z,708.75
2018-04-29T11:33:14.860Z,472.50
2018-04-29T11:34:14.851Z,365.63
2018-04-29T11:35:14.835Z,326.25
2018-04-29T11:36:14.823Z,303.75
2018-04-29T11:37:14.823Z,292.50
2018-04-29T11:38:14.797Z,286.88
2018-04-29T11:39:14.790Z,281.25
2018-04-29T11:40:14.852Z,275.63
2018-04-29T11:41:14.763Z,275.63
2018-04-29T11:42:14.759Z,270.00
2018-04-29T11:43:14.737Z,264.38
2018-04-29T11:44:14.728Z,258.75
2018-04-29T11:45:14.719Z,253.13
2018-04-29T11:46:14.700Z,258.75
2018-04-29T11:47:14.701Z,247.50
2018-04-29T11:48:14.703Z,258.75
2018-04-29T11:49:14.667Z,354.38
2018-04-29T11:50:14.650Z,444.38
2018-04-29T11:51:14.638Z,438.75
2018-04-29T11:52:14.627Z,365.63
2018-04-29T11:53:14.620Z,270.00
2018-04-29T11:54:14.600Z,225.00
2018-04-29T11:55:14.592Z,208.13
2018-04-29T11:56:14.587Z,208.13
2018-04-29T11:57:14.569Z,202.50
2018-04-29T11:58:14.562Z,196.88
2018-04-29T11:59:14.538Z,196.88
2018-04-29T12:00:14.534Z,191.25
2018-04-29T12:01:14.522Z,191.25
2018-04-29T12:02:14.502Z,185.63
2018-04-29T12:03:14.488Z,180.00
2018-04-29T12:04:14.473Z,180.00
2018-04-29T12:05:14.462Z,180.00
2018-04-29T12:06:14.449Z,174.38
2018-04-29T12:07:14.434Z,174.38
2018-04-29T12:08:14.428Z,168.75
2018-04-29T12:09:14.414Z,168.75
2018-04-29T12:10:14.397Z,168.75
2018-04-29T12:11:14.392Z,163.13
2018-04-29T12:12:14.369Z,163.13
2018-04-29T12:13:14.366Z,163.13
2018-04-29T12:14:14.348Z,163.13
2018-04-29T12:15:14.332Z,163.13
2018-04-29T12:16:14.317Z,157.50
2018-04-29T12:17:14.304Z,157.50
2018-04-29T12:18:14.291Z,157.50
2018-04-29T12:19:14.284Z,151.88
2018-04-29T12:20:14.303Z,151.88
2018-04-29T12:21:14.254Z,151.88
2018-04-29T12:22:14.236Z,146.25
2018-04-29T12:23:14.222Z,146.25
2018-04-29T12:24:14.254Z,146.25
2018-04-29T12:25:14.193Z,140.63
2018-04-29T12:26:14.188Z,140.63
2018-04-29T12:27:14.184Z,140.63
2018-04-29T12:28:14.179Z,140.63
2018-04-29T12:29:14.144Z,140.63
2018-04-29T12:30:14.125Z,135.00
2018-04-29T12:31:14.114Z,135.00
2018-04-29T12:32:14.099Z,135.00
2018-04-29T12:33:14.086Z,135.00
2018-04-29T12:34:14.073Z,129.38
2018-04-29T12:35:14.062Z,123.75
2018-04-29T12:36:14.043Z,123.75
2018-04-29T12:37:14.030Z,118.13
2018-04-29T12:38:14.016Z,118.13
2018-04-29T12:39:14.004Z,123.75
2018-04-29T12:40:14.010Z,112.50
2018-04-29T12:41:13.977Z,112.50
2018-04-29T12:42:13.962Z,112.50
2018-04-29T12:43:13.954Z,112.50
2018-04-29T12:44:13.933Z,106.88
2018-04-29T12:45:13.922Z,106.88
2018-04-29T12:46:13.903Z,101.25
2018-04-29T12:47:13.896Z,95.63
2018-04-29T12:48:13.876Z,95.63
2018-04-29T12:49:13.865Z,90.00
2018-04-29T12:50:13.847Z,90.00
2018-04-29T12:51:13.838Z,84.38
2018-04-29T12:52:13.835Z,84.38
2018-04-29T12:53:13.819Z,78.75
2018-04-29T12:54:13.818Z,78.75
2018-04-29T12:55:13.819Z,73.13
2018-04-29T12:56:13.820Z,67.50
2018-04-29T12:57:13.821Z,67.50
2018-04-29T12:58:13.796Z,61.88
2018-04-29T12:59:13.748Z,56.25
2018-04-29T13:00:13.849Z,56.25
2018-04-29T13:01:28.341Z,56.25
2018-04-29T13:02:13.676Z,56.25
2018-04-29T13:03:13.665Z,50.63
2018-04-29T13:04:13.654Z,50.63
2018-04-29T13:05:13.634Z,50.63
2018-04-29T13:06:13.624Z,45.00
2018-04-29T13:07:13.603Z,45.00
2018-04-29T13:08:13.590Z,39.38
2018-04-29T13:09:13.579Z,39.38
2018-04-29T13:10:13.560Z,39.38
2018-04-29T13:11:13.547Z,39.38
2018-04-29T13:12:13.535Z,39.38
2018-04-29T13:13:13.517Z,39.38
2018-04-29T13:14:13.522Z,39.38
2018-04-29T13:15:13.487Z,39.38
2018-04-29T13:16:13.469Z,39.38
2018-04-29T13:17:13.458Z,39.38
2018-04-29T13:18:13.442Z,39.38
2018-04-29T13:19:13.427Z,39.38
2018-04-29T13:20:13.418Z,39.38
2018-04-29T13:21:13.439Z,39.38
2018-04-29T13:22:13.411Z,33.75
2018-04-29T13:23:13.415Z,39.38
2018-04-29T13:24:13.355Z,33.75
2018-04-29T13:25:13.338Z,33.75
2018-04-29T13:26:13.323Z,33.75
2018-04-29T13:27:14.162Z,33.75
2018-04-29T13:28:13.352Z,33.75
2018-04-29T13:29:13.280Z,33.75
2018-04-29T13:30:13.263Z,33.75
2018-04-29T13:31:13.250Z,33.75
2018-04-29T13:32:13.234Z,33.75
2018-04-29T13:33:13.221Z,33.75
2018-04-29T13:34:13.205Z,33.75
2018-04-29T13:35:13.188Z,33.75
2018-04-29T13:36:13.183Z,33.75
2018-04-29T13:37:13.160Z,33.75
2018-04-29T13:38:13.146Z,33.75
2018-04-29T13:39:13.132Z,33.75
2018-04-29T13:40:13.123Z,33.75
2018-04-29T13:41:13.099Z,33.75
2018-04-29T13:42:13.153Z,33.75
2018-04-29T13:43:13.080Z,33.75